createdAt,value
2023-03-26T00:01:16.769Z,100814.59
2023-03-26T00:03:46.872Z,100822.47
2023-03-26T00:06:16.198Z,100824.38
2023-03-26T00:08:45.656Z,100815.69
2023-03-26T00:11:15.895Z,100815.69
2023-03-26T00:13:43.976Z,100819.53
2023-03-26T00:16:13.575Z,100819.03
2023-03-26T00:18:42.585Z,100810.84
2023-03-26T00:21:13.385Z,100809.25
2023-03-26T00:23:41.493Z,100810.66
2023-03-26T00:26:12.802Z,100807.41
2023-03-26T00:28:41.443Z,100805.81
2023-03-26T00:31:12.186Z,100808.84
2023-03-26T00:33:40.716Z,100809.16
2023-03-26T00:36:10.833Z,100805.63
2023-03-26T00:38:39.061Z,100800.47
2023-03-26T00:41:17.847Z,100795.81
2023-03-26T00:43:48.862Z,100788.25
2023-03-26T00:46:17.491Z,100789.16
2023-03-26T00:48:46.058Z,100780.78
2023-03-26T00:51:15.757Z,100785.72
2023-03-26T00:53:45.239Z,100775.09
2023-03-26T00:56:12.905Z,100777.03
2023-03-26T00:58:40.557Z,100771.56
2023-03-26T01:01:13.766Z,100769.97
2023-03-26T01:03:48.012Z,100779.75
2023-03-26T01:06:28.383Z,100764.22
2023-03-26T01:08:59.935Z,100773.69
2023-03-26T01:11:30.986Z,100770.97
2023-03-26T01:14:04.721Z,100763.63
2023-03-26T01:16:46.670Z,100760.06
2023-03-26T01:19:29.238Z,100753.31
2023-03-26T01:21:57.464Z,100743.81
2023-03-26T01:24:24.016Z,100743.31
2023-03-26T01:27:04.331Z,100731.31
2023-03-26T01:29:43.979Z,100732.41
2023-03-26T01:32:35.748Z,100725.06
2023-03-26T01:35:32.184Z,100725.88
2023-03-26T01:38:10.570Z,100727.78
2023-03-26T01:40:46.641Z,100720.13
2023-03-26T01:43:39.310Z,100721.44
2023-03-26T01:46:09.351Z,100713.75
2023-03-26T01:48:39.773Z,100715.38
2023-03-26T01:51:06.796Z,100708.31
2023-03-26T01:53:37.812Z,100703.97
2023-03-26T01:56:16.589Z,100700.75
2023-03-26T01:59:00.785Z,100694.78
2023-03-26T02:01:38.010Z,100692.38
2023-03-26T02:04:57.674Z,100691.56
2023-03-26T02:07:40.585Z,100682.88
2023-03-26T02:10:10.426Z,100674.19
2023-03-26T02:12:41.231Z,100670.97
2023-03-26T02:15:08.392Z,100666.16
2023-03-26T02:17:35.220Z,100667.25
2023-03-26T02:20:05.825Z,100666.75
2023-03-26T02:22:40.599Z,100668.97
2023-03-26T02:25:09.924Z,100666.25
2023-03-26T02:27:37.941Z,100653.75
2023-03-26T02:30:10.136Z,100645.56
2023-03-26T02:32:38.895Z,100649.91
2023-03-26T02:35:06.894Z,100655.34
2023-03-26T02:37:34.065Z,100651.00
2023-03-26T02:40:11.587Z,100649.81
2023-03-26T02:42:40.807Z,100642.91
2023-03-26T02:45:07.890Z,100638.28
2023-03-26T02:48:09.425Z,100638.28
2023-03-26T02:50:58.369Z,100637.69
2023-03-26T02:53:57.039Z,100633.25
2023-03-26T02:56:42.412Z,100633.75
2023-03-26T02:59:31.911Z,100638.06
2023-03-26T03:02:18.256Z,100641.31
2023-03-26T03:04:45.864Z,100638.28
2023-03-26T03:07:14.855Z,100636.88
2023-03-26T03:09:41.786Z,100629.19
2023-03-26T03:12:26.867Z,100619.09
2023-03-26T03:14:53.416Z,100623.13
2023-03-26T03:17:20.885Z,100624.16
2023-03-26T03:19:47.460Z,100627.88
2023-03-26T03:22:14.187Z,100614.41
2023-03-26T03:24:43.736Z,100616.22
2023-03-26T03:27:10.421Z,100608.56
2023-03-26T03:29:43.875Z,100610.66
2023-03-26T03:32:36.916Z,100597.22
2023-03-26T03:35:05.271Z,100600.16
2023-03-26T03:37:31.797Z,100603.69
2023-03-26T03:39:59.225Z,100601.75
2023-03-26T03:42:28.153Z,100601.47
2023-03-26T03:44:57.521Z,100609.31
2023-03-26T03:47:46.958Z,100603.88
2023-03-26T03:50:16.706Z,100608.22
2023-03-26T03:52:59.072Z,100604.38
2023-03-26T03:55:27.610Z,100607.09
2023-03-26T03:57:54.581Z,100601.66
2023-03-26T04:00:24.252Z,100596.19
2023-03-26T04:03:09.059Z,100592.34
2023-03-26T04:05:36.373Z,100587.41
2023-03-26T04:08:02.875Z,100583.06
2023-03-26T04:10:51.491Z,100577.59
2023-03-26T04:13:37.240Z,100579.22
2023-03-26T04:16:25.208Z,100565.09
2023-03-26T04:18:51.841Z,100560.13
2023-03-26T04:21:19.351Z,100566.09
2023-03-26T04:23:45.991Z,100566.41
2023-03-26T04:26:23.657Z,100562.88
2023-03-26T04:29:06.262Z,100558.22
2023-03-26T04:31:34.119Z,100550.84
2023-03-26T04:34:18.366Z,100547.31
2023-03-26T04:36:56.539Z,100545.38
2023-03-26T04:39:29.559Z,100544.59
2023-03-26T04:42:19.937Z,100535.59
2023-03-26T04:45:03.058Z,100520.03
2023-03-26T04:47:30.114Z,100521.97
2023-03-26T04:49:56.609Z,100518.94
2023-03-26T04:52:23.726Z,100512.97
2023-03-26T04:55:25.257Z,100508.34
2023-03-26T04:58:03.394Z,100510.75
2023-03-26T05:00:55.225Z,100504.50
2023-03-26T05:03:21.878Z,100504.50
2023-03-26T05:05:51.435Z,100492.47
2023-03-26T05:08:18.081Z,100487.34
2023-03-26T05:10:44.703Z,100488.94
2023-03-26T05:13:15.671Z,100480.75
2023-03-26T05:15:49.712Z,100487.03
2023-03-26T05:18:38.932Z,100481.25
2023-03-26T05:21:06.038Z,100479.66
2023-03-26T05:23:33.499Z,100480.44
2023-03-26T05:26:20.386Z,100475.81
2023-03-26T05:28:47.440Z,100476.59
2023-03-26T05:31:32.543Z,100466.81
2023-03-26T05:34:00.614Z,100467.94
2023-03-26T05:36:30.680Z,100466.00
2023-03-26T05:39:07.184Z,100465.66
2023-03-26T05:41:53.786Z,100457.50
2023-03-26T05:44:24.930Z,100463.44
2023-03-26T05:46:53.696Z,100454.94
2023-03-26T05:49:24.027Z,100453.34
2023-03-26T05:51:52.761Z,100447.88
2023-03-26T05:54:33.644Z,100448.69
2023-03-26T05:57:32.694Z,100444.84
2023-03-26T06:00:18.450Z,100437.78
2023-03-26T06:02:47.967Z,100442.44
2023-03-26T06:05:37.174Z,100443.25
2023-03-26T06:08:12.567Z,100432.34
2023-03-26T06:10:39.850Z,100429.28
2023-03-26T06:13:06.714Z,100421.91
2023-03-26T06:15:36.339Z,100420.00
2023-03-26T06:18:11.929Z,100416.66
2023-03-26T06:21:08.455Z,100416.34
2023-03-26T06:23:43.797Z,100417.63
2023-03-26T06:26:17.687Z,100409.13
2023-03-26T06:28:55.247Z,100402.88
2023-03-26T06:31:42.212Z,100406.41
2023-03-26T06:34:25.185Z,100412.84
2023-03-26T06:36:52.707Z,100408.19
2023-03-26T06:39:20.716Z,100408.38
2023-03-26T06:41:56.962Z,100402.44
2023-03-26T06:44:45.966Z,100396.34
2023-03-26T06:47:30.969Z,100399.56
2023-03-26T06:50:16.511Z,100396.84
2023-03-26T06:53:03.325Z,100396.84
2023-03-26T06:55:42.245Z,100399.75
2023-03-26T06:58:38.926Z,100392.66
2023-03-26T07:01:24.076Z,100397.81
2023-03-26T07:04:08.916Z,100402.47
2023-03-26T07:06:56.114Z,100402.78
2023-03-26T07:09:42.740Z,100401.66
2023-03-26T07:12:28.192Z,100403.28
2023-03-26T07:15:30.273Z,100398.94
2023-03-26T07:18:01.267Z,100401.84
2023-03-26T07:20:32.581Z,100391.06
2023-03-26T07:22:59.487Z,100399.75
2023-03-26T07:25:34.522Z,100398.63
2023-03-26T07:28:41.775Z,100397.50
2023-03-26T07:32:08.012Z,100395.75
2023-03-26T07:34:47.581Z,100397.06
2023-03-26T07:37:43.748Z,100394.00
2023-03-26T07:40:52.419Z,100390.66
2023-03-26T07:43:46.919Z,100395.47
2023-03-26T07:46:34.976Z,100391.31
2023-03-26T07:49:20.508Z,100395.31
2023-03-26T07:52:19.218Z,100395.00
2023-03-26T07:55:06.064Z,100387.63
2023-03-26T07:58:23.316Z,100384.91
2023-03-26T08:01:28.178Z,100378.00
2023-03-26T08:04:23.632Z,100378.94
2023-03-26T08:07:23.234Z,100380.88
2023-03-26T08:10:26.118Z,100381.03
2023-03-26T08:13:16.744Z,100376.38
2023-03-26T08:15:53.518Z,100377.34
2023-03-26T08:18:35.673Z,100376.22
2023-03-26T08:21:13.963Z,100378.97
2023-03-26T08:24:18.962Z,100375.91
2023-03-26T08:27:40.837Z,100373.81
2023-03-26T08:30:24.920Z,100377.69
2023-03-26T08:32:57.419Z,100374.78
2023-03-26T08:35:25.520Z,100370.44
2023-03-26T08:37:59.720Z,100377.81
2023-03-26T08:40:47.992Z,100369.31
2023-03-26T08:43:27.138Z,100369.63
2023-03-26T08:46:32.049Z,100373.81
2023-03-26T08:49:20.373Z,100375.41
2023-03-26T08:52:05.580Z,100371.41
2023-03-26T08:54:34.708Z,100377.66
2023-03-26T08:57:30.989Z,100379.59
2023-03-26T09:00:35.612Z,100374.47
2023-03-26T09:03:15.582Z,100375.91
2023-03-26T09:06:17.014Z,100374.28
2023-03-26T09:08:53.667Z,100378.94
2023-03-26T09:11:42.326Z,100379.59
2023-03-26T09:14:41.318Z,100379.41
2023-03-26T09:17:41.989Z,100382.28
2023-03-26T09:20:42.728Z,100380.19
2023-03-26T09:23:29.489Z,100379.53
2023-03-26T09:26:01.730Z,100376.31
2023-03-26T09:29:11.861Z,100377.28
2023-03-26T09:31:47.102Z,100379.22
2023-03-26T09:34:29.901Z,100377.28
2023-03-26T09:37:11.614Z,100376.66
2023-03-26T09:40:05.206Z,100381.16
2023-03-26T09:42:44.518Z,100381.97
2023-03-26T09:45:20.993Z,100384.88
2023-03-26T09:48:25.450Z,100384.88
2023-03-26T09:51:04.431Z,100387.28
2023-03-26T09:54:06.003Z,100392.75
2023-03-26T09:56:48.002Z,100391.63
2023-03-26T09:59:28.318Z,100394.34
2023-03-26T10:02:46.733Z,100391.94
2023-03-26T10:05:44.746Z,100405.91
2023-03-26T10:08:28.793Z,100407.66
2023-03-26T10:11:40.983Z,100407.16
2023-03-26T10:14:24.495Z,100404.44
2023-03-26T10:17:17.459Z,100411.63
2023-03-26T10:19:50.027Z,100411.50
2023-03-26T10:22:23.388Z,100411.81
2023-03-26T10:25:27.049Z,100410.88
2023-03-26T10:28:08.675Z,100412.97
2023-03-26T10:30:47.016Z,100418.91
2023-03-26T10:33:31.078Z,100421.63
2023-03-26T10:36:39.208Z,100417.63
2023-03-26T10:39:43.612Z,100421.47
2023-03-26T10:42:36.170Z,100415.84
2023-03-26T10:45:16.058Z,100425.63
2023-03-26T10:48:20.038Z,100422.75
2023-03-26T10:50:56.177Z,100424.84
2023-03-26T10:53:30.893Z,100419.22
2023-03-26T10:56:07.288Z,100432.06
2023-03-26T10:58:49.236Z,100440.72
2023-03-26T11:01:31.853Z,100438.13
2023-03-26T11:04:14.702Z,100441.78
2023-03-26T11:06:55.881Z,100445.63
2023-03-26T11:09:35.660Z,100444.81
2023-03-26T11:12:26.738Z,100442.59
2023-03-26T11:15:27.865Z,100448.53
2023-03-26T11:18:01.483Z,100441.66
2023-03-26T11:20:53.351Z,100446.47
2023-03-26T11:23:37.656Z,100454.84
2023-03-26T11:26:51.961Z,100449.22
2023-03-26T11:29:54.665Z,100456.28
2023-03-26T11:32:27.113Z,100453.41
2023-03-26T11:35:04.150Z,100459.53
2023-03-26T11:37:41.566Z,100464.34
2023-03-26T11:40:21.439Z,100465.66
2023-03-26T11:42:51.794Z,100473.97
2023-03-26T11:45:21.910Z,100477.97
2023-03-26T11:47:52.734Z,100470.41
2023-03-26T11:50:27.135Z,100471.66
2023-03-26T11:52:58.735Z,100473.22
2023-03-26T11:55:27.191Z,100475.16
2023-03-26T11:57:57.639Z,100481.41
2023-03-26T12:00:27.357Z,100479.66
2023-03-26T12:02:59.056Z,100478.22
2023-03-26T12:05:36.611Z,100487.34
2023-03-26T12:08:17.698Z,100484.19
2023-03-26T12:10:53.785Z,100487.75
2023-03-26T12:13:43.152Z,100486.47
2023-03-26T12:16:19.748Z,100491.78
2023-03-26T12:18:58.050Z,100484.41
2023-03-26T12:21:24.592Z,100489.22
2023-03-26T12:23:56.774Z,100492.28
2023-03-26T12:26:48.998Z,100491.66
2023-03-26T12:29:18.819Z,100499.88
2023-03-26T12:31:55.488Z,100507.00
2023-03-26T12:34:30.761Z,100500.59
2023-03-26T12:37:01.480Z,100505.00
2023-03-26T12:40:07.852Z,100512.41
2023-03-26T12:44:46.872Z,100510.00
2023-03-26T12:45:22.587Z,100513.69
2023-03-26T12:48:01.903Z,100511.06
2023-03-26T12:50:51.452Z,100513.13
2023-03-26T12:53:45.984Z,100514.09
2023-03-26T12:56:21.906Z,100517.16
2023-03-26T12:59:00.781Z,100521.03
2023-03-26T13:02:04.855Z,100527.94
2023-03-26T13:05:05.089Z,100528.50
2023-03-26T13:07:48.776Z,100536.19
2023-03-26T13:10:32.782Z,100531.06
2023-03-26T13:13:27.258Z,100536.88
2023-03-26T13:16:02.112Z,100532.19
2023-03-26T13:18:56.871Z,100534.94
2023-03-26T13:21:45.952Z,100536.84
2023-03-26T13:24:15.277Z,100539.44
2023-03-26T13:26:54.168Z,100535.91
2023-03-26T13:29:27.837Z,100554.88
2023-03-26T13:32:18.499Z,100547.31
2023-03-26T13:34:47.894Z,100556.81
2023-03-26T13:37:21.555Z,100561.47
2023-03-26T13:40:15.978Z,100564.84
2023-03-26T13:43:09.552Z,100561.13
2023-03-26T13:45:42.678Z,100559.84
2023-03-26T13:48:16.303Z,100559.53
2023-03-26T13:50:47.360Z,100569.66
2023-03-26T13:53:25.288Z,100572.41
2023-03-26T13:55:57.295Z,100569.50
2023-03-26T13:58:34.253Z,100567.44
2023-03-26T14:01:11.025Z,100571.44
2023-03-26T14:03:53.070Z,100573.72
2023-03-26T14:06:43.410Z,100579.66
2023-03-26T14:09:19.892Z,100581.91
2023-03-26T14:11:56.676Z,100589.78
2023-03-26T14:14:34.949Z,100596.69
2023-03-26T14:17:15.665Z,100594.28
2023-03-26T14:20:05.341Z,100603.78
2023-03-26T14:23:09.642Z,100604.91
2023-03-26T14:25:39.156Z,100603.09
2023-03-26T14:28:36.415Z,100608.25
2023-03-26T14:31:30.407Z,100613.09
2023-03-26T14:33:59.889Z,100618.41
2023-03-26T14:36:59.122Z,100620.81
2023-03-26T14:39:54.468Z,100624.66
2023-03-26T14:42:46.655Z,100638.97
2023-03-26T14:45:34.915Z,100629.00
2023-03-26T14:48:32.165Z,100643.47
2023-03-26T14:51:25.579Z,100651.47
2023-03-26T14:54:05.634Z,100662.69
2023-03-26T14:56:54.181Z,100656.41
2023-03-26T14:59:32.992Z,100660.91
2023-03-26T15:02:29.302Z,100673.63
2023-03-26T15:05:11.534Z,100679.41
2023-03-26T15:07:56.153Z,100683.06
2023-03-26T15:11:04.956Z,100689.13
2023-03-26T15:13:59.281Z,100695.13
2023-03-26T15:16:52.347Z,100697.03
2023-03-26T15:19:57.348Z,100698.03
2023-03-26T15:22:51.955Z,100703.66
2023-03-26T15:25:45.159Z,100702.06
2023-03-26T15:28:48.924Z,100710.75
2023-03-26T15:31:38.681Z,100717.50
2023-03-26T15:34:27.461Z,100723.28
2023-03-26T15:37:10.701Z,100721.69
2023-03-26T15:40:09.485Z,100723.56
2023-03-26T15:43:14.363Z,100725.88
2023-03-26T15:45:41.465Z,100730.97
2023-03-26T15:48:11.774Z,100742.03
2023-03-26T15:50:54.647Z,100751.63
2023-03-26T15:53:23.411Z,100764.47
2023-03-26T15:56:17.843Z,100770.03
2023-03-26T15:59:08.372Z,100768.25
2023-03-26T16:02:10.004Z,100782.19
2023-03-26T16:04:53.965Z,100784.72
2023-03-26T16:07:38.939Z,100798.06
2023-03-26T16:10:30.633Z,100802.13
2023-03-26T16:13:22.162Z,100800.63
2023-03-26T16:16:04.062Z,100810.72
2023-03-26T16:18:35.765Z,100812.34
2023-03-26T16:21:32.400Z,100820.53
2023-03-26T16:24:02.826Z,100815.38
2023-03-26T16:26:44.536Z,100825.28
2023-03-26T16:29:14.255Z,100824.03
2023-03-26T16:31:58.016Z,100829.59
2023-03-26T16:34:57.224Z,100844.25
2023-03-26T16:37:37.335Z,100841.13
2023-03-26T16:40:22.595Z,100849.09
2023-03-26T16:42:57.465Z,100862.06
2023-03-26T16:45:54.872Z,100874.19
2023-03-26T16:48:43.306Z,100873.50
2023-03-26T16:51:34.667Z,100881.16
2023-03-26T16:54:24.309Z,100881.56
2023-03-26T16:57:08.447Z,100892.97
2023-03-26T17:00:08.021Z,100906.81
2023-03-26T17:02:50.507Z,100909.66
2023-03-26T17:05:34.187Z,100919.25
2023-03-26T17:08:36.487Z,100919.03
2023-03-26T17:11:27.227Z,100941.25
2023-03-26T17:14:12.414Z,100945.69
2023-03-26T17:17:07.285Z,100940.13
2023-03-26T17:20:13.306Z,100938.59
2023-03-26T17:22:43.052Z,100951.78
2023-03-26T17:25:36.504Z,100962.47
2023-03-26T17:28:52.395Z,100968.03
2023-03-26T17:31:23.804Z,100976.38
2023-03-26T17:33:52.290Z,100982.47
2023-03-26T17:36:39.827Z,100987.41
2023-03-26T17:39:21.510Z,100989.38
2023-03-26T17:42:13.399Z,101004.41
2023-03-26T17:44:44.780Z,101002.50
2023-03-26T17:47:22.433Z,101012.06
2023-03-26T17:49:53.618Z,101014.56
2023-03-26T17:52:33.856Z,101013.84
2023-03-26T17:55:01.981Z,101022.88
2023-03-26T17:57:42.839Z,101022.47
2023-03-26T18:00:19.804Z,101026.81
2023-03-26T18:03:18.007Z,101030.53
2023-03-26T18:05:46.048Z,101041.72
2023-03-26T18:08:50.925Z,101045.66
2023-03-26T18:11:37.009Z,101058.06
2023-03-26T18:14:27.473Z,101059.81
2023-03-26T18:16:59.201Z,101064.59
2023-03-26T18:19:26.922Z,101066.56
2023-03-26T18:21:57.129Z,101072.56
2023-03-26T18:24:32.498Z,101072.06
2023-03-26T18:27:04.915Z,101080.22
2023-03-26T18:29:35.302Z,101088.91
2023-03-26T18:32:19.720Z,101091.34
2023-03-26T18:34:49.899Z,101102.75
2023-03-26T18:37:22.555Z,101106.81
2023-03-26T18:39:57.034Z,101109.81
2023-03-26T18:42:24.654Z,101122.03
2023-03-26T18:44:52.341Z,101133.22
2023-03-26T18:47:20.616Z,101132.94
2023-03-26T18:49:49.740Z,101147.66
2023-03-26T18:52:19.420Z,101147.94
2023-03-26T18:54:53.770Z,101154.75
2023-03-26T18:57:23.349Z,101170.34
2023-03-26T18:59:53.774Z,101169.28
2023-03-26T19:02:22.082Z,101182.13
2023-03-26T19:04:50.790Z,101190.09
2023-03-26T19:07:24.931Z,101186.59
2023-03-26T19:09:56.406Z,101199.41
2023-03-26T19:12:37.367Z,101192.66
2023-03-26T19:15:10.077Z,101196.47
2023-03-26T19:17:41.607Z,101196.50
2023-03-26T19:20:17.360Z,101200.84
2023-03-26T19:22:45.144Z,101206.31
2023-03-26T19:25:33.057Z,101215.00
2023-03-26T19:27:59.751Z,101215.53
2023-03-26T19:30:43.476Z,101222.59
2023-03-26T19:33:17.080Z,101234.03
2023-03-26T19:35:50.722Z,101222.97
2023-03-26T19:38:28.967Z,101233.06
2023-03-26T19:40:57.331Z,101248.31
2023-03-26T19:43:25.552Z,101247.53
2023-03-26T19:46:00.601Z,101250.53
2023-03-26T19:48:45.357Z,101257.63
2023-03-26T19:51:20.416Z,101270.69
2023-03-26T19:53:52.906Z,101269.94
2023-03-26T19:56:21.368Z,101270.75
2023-03-26T19:58:57.890Z,101275.13
2023-03-26T20:01:27.836Z,101279.47
2023-03-26T20:03:58.139Z,101282.75
2023-03-26T20:06:41.661Z,101283.28
2023-03-26T20:09:16.248Z,101286.56
2023-03-26T20:11:42.856Z,101284.41
2023-03-26T20:14:25.919Z,101292.56
2023-03-26T20:16:52.929Z,101298.53
2023-03-26T20:19:22.988Z,101303.44
2023-03-26T20:21:52.789Z,101300.44
2023-03-26T20:24:21.468Z,101309.94
2023-03-26T20:26:50.477Z,101321.63
2023-03-26T20:29:17.578Z,101321.63
2023-03-26T20:31:44.435Z,101322.16
2023-03-26T20:34:29.078Z,101326.25
2023-03-26T20:36:55.791Z,101330.06
2023-03-26T20:39:23.570Z,101331.97
2023-03-26T20:41:53.523Z,101338.50
2023-03-26T20:44:23.770Z,101336.59
2023-03-26T20:46:50.786Z,101343.66
2023-03-26T20:49:18.382Z,101355.06
2023-03-26T20:51:46.478Z,101361.09
2023-03-26T20:54:16.177Z,101368.16
2023-03-26T20:56:42.836Z,101372.78
2023-03-26T20:59:11.694Z,101378.75
2023-03-26T21:01:38.702Z,101382.56
2023-03-26T21:04:06.797Z,101375.22
2023-03-26T21:06:33.313Z,101385.00
2023-03-26T21:09:00.203Z,101382.81
2023-03-26T21:11:44.959Z,101386.91
2023-03-26T21:14:22.944Z,101392.09
2023-03-26T21:16:50.047Z,101391.53
2023-03-26T21:19:16.890Z,101395.88
2023-03-26T21:24:46.092Z,101398.84
2023-03-26T21:27:22.667Z,101411.88
2023-03-26T21:29:52.752Z,101410.53
2023-03-26T21:32:20.336Z,101411.88
2023-03-26T21:34:55.561Z,101407.00
2023-03-26T21:37:24.904Z,101415.66
2023-03-26T21:39:51.639Z,101418.09
2023-03-26T21:42:18.539Z,101424.88
2023-03-26T21:44:46.044Z,101434.38
2023-03-26T21:47:12.940Z,101439.78
2023-03-26T21:49:39.756Z,101447.38
2023-03-26T21:52:06.558Z,101450.88
2023-03-26T21:54:33.377Z,101456.03
2023-03-26T21:57:27.978Z,101456.56
2023-03-26T22:00:08.203Z,101466.59
2023-03-26T22:02:42.462Z,101471.25
2023-03-26T22:05:21.012Z,101469.03
2023-03-26T22:08:01.664Z,101475.84
2023-03-26T22:10:29.637Z,101481.56
2023-03-26T22:12:56.355Z,101493.50
2023-03-26T22:15:25.208Z,101498.41
2023-03-26T22:17:55.778Z,101490.00
2023-03-26T22:20:24.997Z,101494.91
2023-03-26T22:22:53.040Z,101503.59
2023-03-26T22:25:20.898Z,101509.03
2023-03-26T22:27:48.960Z,101508.50
2023-03-26T22:30:16.352Z,101501.16
2023-03-26T22:32:43.641Z,101516.38
2023-03-26T22:35:10.546Z,101507.97
2023-03-26T22:37:37.907Z,101510.94
2023-03-26T22:40:08.392Z,101515.81
2023-03-26T22:42:36.191Z,101528.28
2023-03-26T22:45:04.033Z,101538.03
2023-03-26T22:47:35.338Z,101542.34
2023-03-26T22:50:03.819Z,101543.41
2023-03-26T22:52:31.162Z,101538.50
2023-03-26T22:54:57.879Z,101538.47
2023-03-26T22:57:24.566Z,101543.88
2023-03-26T22:59:52.249Z,101552.53
2023-03-26T23:02:19.798Z,101553.56
2023-03-26T23:04:47.887Z,101561.97
2023-03-26T23:07:14.903Z,101560.31
2023-03-26T23:09:41.657Z,101572.47
2023-03-26T23:12:08.352Z,101571.69
2023-03-26T23:14:34.872Z,101581.44
2023-03-26T23:17:01.533Z,101576.56
2023-03-26T23:19:29.928Z,101581.22
2023-03-26T23:21:57.350Z,101583.97
2023-03-26T23:24:26.504Z,101592.34
2023-03-26T23:26:53.205Z,101596.97
2023-03-26T23:29:19.928Z,101601.28
2023-03-26T23:31:46.607Z,101603.16
2023-03-26T23:34:15.348Z,101606.69
2023-03-26T23:36:42.242Z,101607.81
2023-03-26T23:39:09.221Z,101612.72
2023-03-26T23:41:36.722Z,101625.19
2023-03-26T23:44:04.210Z,101628.72
2023-03-26T23:46:32.897Z,101623.81
2023-03-26T23:49:03.800Z,101623.28
2023-03-26T23:51:30.680Z,101639.53
2023-03-26T23:53:57.780Z,101646.31
2023-03-26T23:56:24.470Z,101649.53
2023-03-26T23:58:51.126Z,101650.09
